createdAt,value
2019-04-10T00:00:24.066Z,99.99
2019-04-10T00:01:24.050Z,99.99
2019-04-10T00:02:24.111Z,99.99
2019-04-10T00:03:37.255Z,99.99
2019-04-10T00:04:24.922Z,99.99
2019-04-10T00:05:23.988Z,99.99
2019-04-10T00:06:24.142Z,99.99
2019-04-10T00:07:25.580Z,99.99
2019-04-10T00:08:24.299Z,99.99
2019-04-10T00:09:23.927Z,99.99
2019-04-10T00:10:23.914Z,99.99
2019-04-10T00:11:24.906Z,99.99
2019-04-10T00:12:23.879Z,99.99
2019-04-10T00:13:24.975Z,99.99
2019-04-10T00:14:24.044Z,99.99
2019-04-10T00:15:24.518Z,99.99
2019-04-10T00:16:24.816Z,99.99
2019-04-10T00:17:24.915Z,99.99
2019-04-10T00:18:24.545Z,99.99
2019-04-10T00:19:24.821Z,99.99
2019-04-10T00:20:24.904Z,99.99
2019-04-10T00:21:23.728Z,99.99
2019-04-10T00:22:24.642Z,99.99
2019-04-10T00:23:24.747Z,99.99
2019-04-10T00:24:24.363Z,99.99
2019-04-10T00:25:24.416Z,99.99
2019-04-10T00:26:24.074Z,99.99
2019-04-10T00:27:23.631Z,99.99
2019-04-10T00:28:23.658Z,99.99
2019-04-10T00:29:24.686Z,99.99
2019-04-10T00:30:23.587Z,99.99
2019-04-10T00:31:26.306Z,99.99
2019-04-10T00:32:24.051Z,99.99
2019-04-10T00:33:23.551Z,99.99
2019-04-10T00:34:23.658Z,99.99
2019-04-10T00:35:23.864Z,99.99
2019-04-10T00:36:23.485Z,99.99
2019-04-10T00:37:31.045Z,99.99
2019-04-10T00:38:24.208Z,99.99
2019-04-10T00:39:24.455Z,99.99
2019-04-10T00:40:23.822Z,99.99
2019-04-10T00:41:24.254Z,99.99
2019-04-10T00:42:23.459Z,99.99
2019-04-10T00:43:24.503Z,99.99
2019-04-10T00:44:24.038Z,99.99
2019-04-10T00:45:25.037Z,99.99
2019-04-10T00:46:24.495Z,99.99
2019-04-10T00:47:23.623Z,99.99
2019-04-10T00:48:23.929Z,99.99
2019-04-10T00:49:24.220Z,99.99
2019-04-10T00:50:23.339Z,99.99
2019-04-10T00:51:23.745Z,99.99
2019-04-10T00:52:24.202Z,99.99
2019-04-10T00:53:23.601Z,99.99
2019-04-10T00:54:24.104Z,99.99
2019-04-10T00:55:24.216Z,99.99
2019-04-10T00:56:24.176Z,99.99
2019-04-10T00:57:23.743Z,99.99
2019-04-10T00:58:23.129Z,99.99
2019-04-10T00:59:24.109Z,99.99
2019-04-10T01:00:24.074Z,99.99
2019-04-10T01:01:23.900Z,99.99
2019-04-10T01:02:22.822Z,99.99
2019-04-10T01:03:24.974Z,99.99
2019-04-10T01:04:23.033Z,99.99
2019-04-10T01:05:23.015Z,99.99
2019-04-10T01:06:23.997Z,99.99
2019-04-10T01:07:40.077Z,99.99
2019-04-10T01:08:22.970Z,99.99
2019-04-10T01:09:23.913Z,99.99
2019-04-10T01:10:23.106Z,99.99
2019-04-10T01:11:23.477Z,99.99
2019-04-10T01:12:23.923Z,99.99
2019-04-10T01:13:23.291Z,99.99
2019-04-10T01:14:23.697Z,99.99
2019-04-10T01:15:22.858Z,99.99
2019-04-10T01:16:23.141Z,99.99
2019-04-10T01:17:22.819Z,99.99
2019-04-10T01:18:23.800Z,99.99
2019-04-10T01:19:23.780Z,99.99
2019-04-10T01:20:23.679Z,99.99
2019-04-10T01:21:22.758Z,99.99
2019-04-10T01:22:24.045Z,99.99
2019-04-10T01:23:22.892Z,99.99
2019-04-10T01:24:23.680Z,99.99
2019-04-10T01:25:22.693Z,99.99
2019-04-10T01:26:23.560Z,99.99
2019-04-10T01:27:23.614Z,99.99
2019-04-10T01:28:22.988Z,99.99
2019-04-10T01:29:22.626Z,99.99
2019-04-10T01:30:22.609Z,99.99
2019-04-10T01:31:23.787Z,99.99
2019-04-10T01:32:23.710Z,99.99
2019-04-10T01:33:23.092Z,99.99
2019-04-10T01:34:23.559Z,99.99
2019-04-10T01:35:22.504Z,99.99
2019-04-10T01:36:23.137Z,99.99
2019-04-10T01:37:23.094Z,99.99
2019-04-10T01:38:22.481Z,99.99
2019-04-10T01:39:22.467Z,99.99
2019-04-10T01:40:23.864Z,99.99
2019-04-10T01:41:22.424Z,99.99
2019-04-10T01:42:23.062Z,99.99
2019-04-10T01:43:22.590Z,99.99
2019-04-10T01:44:22.907Z,99.99
2019-04-10T01:45:22.363Z,99.99
2019-04-10T01:46:22.553Z,99.99
2019-04-10T01:47:23.354Z,99.99
2019-04-10T01:48:22.312Z,99.99
2019-04-10T01:49:22.052Z,99.99
2019-04-10T01:50:22.561Z,99.99
2019-04-10T01:51:23.338Z,99.99
2019-04-10T01:52:23.001Z,99.99
2019-04-10T01:53:22.225Z,99.99
2019-04-10T01:54:22.712Z,99.99
2019-04-10T01:55:31.306Z,99.99
2019-04-10T01:56:32.220Z,99.99
2019-04-10T01:57:22.273Z,99.99
2019-04-10T01:58:23.139Z,99.99
2019-04-10T01:59:22.129Z,99.99
2019-04-10T02:00:22.110Z,99.99
2019-04-10T02:01:24.075Z,99.99
2019-04-10T02:02:23.004Z,99.99
2019-04-10T02:03:22.552Z,99.99
2019-04-10T02:04:22.756Z,99.99
2019-04-10T02:05:22.934Z,99.99
2019-04-10T02:06:22.091Z,99.99
2019-04-10T02:07:23.099Z,99.99
2019-04-10T02:08:21.982Z,99.99
2019-04-10T02:09:21.728Z,99.99
2019-04-10T02:10:23.765Z,99.99
2019-04-10T02:11:22.116Z,99.99
2019-04-10T02:12:22.799Z,99.99
2019-04-10T02:13:21.901Z,99.99
2019-04-10T02:14:22.843Z,99.99
2019-04-10T02:15:21.889Z,99.99
2019-04-10T02:16:22.884Z,99.99
2019-04-10T02:17:22.618Z,99.99
2019-04-10T02:18:21.811Z,99.99
2019-04-10T02:19:21.965Z,99.99
2019-04-10T02:20:21.780Z,99.99
2019-04-10T02:21:23.382Z,99.99
2019-04-10T02:22:22.751Z,99.99
2019-04-10T02:23:23.034Z,99.99
2019-04-10T02:24:21.715Z,99.99
2019-04-10T02:25:22.342Z,99.99
2019-04-10T02:26:21.685Z,99.99
2019-04-10T02:27:22.789Z,99.99
2019-04-10T02:28:22.679Z,99.99
2019-04-10T02:29:22.070Z,99.99
2019-04-10T02:30:23.872Z,99.99
2019-04-10T02:31:25.727Z,99.99
2019-04-10T02:32:24.172Z,99.99
2019-04-10T02:33:23.136Z,99.99
2019-04-10T02:34:24.935Z,99.99
2019-04-10T02:35:25.212Z,99.99
2019-04-10T02:36:23.491Z,99.99
2019-04-10T02:37:22.801Z,99.99
2019-04-10T02:38:54.335Z,99.99
2019-04-10T02:39:52.621Z,99.99
2019-04-10T02:40:45.428Z,99.99
2019-04-10T02:41:45.700Z,99.99
2019-04-10T02:42:44.996Z,99.99
2019-04-10T02:43:43.009Z,99.99
2019-04-10T02:44:43.676Z,99.99
2019-04-10T02:45:44.573Z,99.99
2019-04-10T02:46:45.030Z,99.99
2019-04-10T02:47:44.834Z,99.99
2019-04-10T02:48:44.177Z,99.99
2019-04-10T02:49:42.829Z,99.99
2019-04-10T02:50:43.242Z,99.99
2019-04-10T02:51:45.090Z,99.99
2019-04-10T02:52:45.699Z,99.99
2019-04-10T02:53:43.783Z,99.99
2019-04-10T02:54:43.459Z,99.99
2019-04-10T02:55:43.595Z,99.99
2019-04-10T02:56:45.332Z,99.99
2019-04-10T02:57:45.730Z,99.99
2019-04-10T02:58:42.742Z,99.99
2019-04-10T02:59:43.111Z,99.99
2019-04-10T03:00:42.267Z,99.99
2019-04-10T03:01:42.145Z,99.99
2019-04-10T03:02:45.282Z,99.99
2019-04-10T03:03:44.542Z,99.99
2019-04-10T03:04:44.385Z,99.99
2019-04-10T03:05:44.565Z,99.99
2019-04-10T03:06:42.789Z,99.99
2019-04-10T03:07:44.033Z,99.99
2019-04-10T03:09:14.347Z,99.99
2019-04-10T03:10:40.718Z,99.99
2019-04-10T03:11:24.220Z,99.99
2019-04-10T03:12:21.717Z,99.99
2019-04-10T03:13:21.729Z,99.99
2019-04-10T03:14:21.445Z,99.99
2019-04-10T03:15:23.189Z,99.99
2019-04-10T03:16:20.142Z,99.99
2019-04-10T03:17:20.168Z,99.99
2019-04-10T03:18:20.877Z,99.99
2019-04-10T03:19:19.888Z,99.99
2019-04-10T03:20:20.844Z,99.99
2019-04-10T03:21:21.005Z,99.99
2019-04-10T03:22:20.805Z,99.99
2019-04-10T03:23:20.881Z,99.99
2019-04-10T03:24:19.791Z,99.99
2019-04-10T03:25:21.479Z,99.99
2019-04-10T03:26:19.756Z,99.99
2019-04-10T03:27:22.557Z,99.99
2019-04-10T03:28:19.800Z,99.99
2019-04-10T03:29:20.214Z,99.99
2019-04-10T03:30:23.324Z,99.99
2019-04-10T03:31:20.194Z,99.99
2019-04-10T03:32:23.075Z,99.99
2019-04-10T03:33:29.286Z,99.99
2019-04-10T03:34:25.963Z,99.99
2019-04-10T03:35:20.662Z,99.99
2019-04-10T03:36:19.595Z,99.99
2019-04-10T03:37:20.529Z,99.99
2019-04-10T03:38:21.617Z,99.99
2019-04-10T03:39:19.880Z,99.99
2019-04-10T03:40:19.832Z,99.99
2019-04-10T03:41:20.181Z,99.99
2019-04-10T03:42:19.222Z,99.99
2019-04-10T03:43:19.895Z,99.99
2019-04-10T03:44:19.435Z,99.99
2019-04-10T03:45:20.208Z,99.99
2019-04-10T03:46:19.657Z,99.99
2019-04-10T03:47:19.933Z,99.99
2019-04-10T03:48:20.109Z,99.99
2019-04-10T03:49:20.259Z,99.99
2019-04-10T03:50:19.470Z,99.99
2019-04-10T03:51:19.325Z,99.99
2019-04-10T03:52:19.397Z,99.99
2019-04-10T03:53:20.466Z,99.99
2019-04-10T03:54:19.011Z,99.99
2019-04-10T03:55:19.236Z,99.99
2019-04-10T03:56:21.318Z,99.99
2019-04-10T03:57:18.960Z,99.99
2019-04-10T03:58:19.992Z,99.99
2019-04-10T03:59:20.166Z,99.99
2019-04-10T04:00:19.671Z,99.99
2019-04-10T04:01:19.134Z,99.99
2019-04-10T04:02:20.151Z,99.99
2019-04-10T04:03:19.097Z,99.99
2019-04-10T04:04:19.941Z,99.99
2019-04-10T04:05:19.063Z,99.99
2019-04-10T04:06:19.962Z,99.99
2019-04-10T04:07:20.729Z,99.99
2019-04-10T04:08:19.323Z,99.99
2019-04-10T04:09:20.031Z,99.99
2019-04-10T04:10:18.966Z,99.99
2019-04-10T04:11:19.965Z,99.99
2019-04-10T04:12:18.930Z,99.99
2019-04-10T04:13:19.887Z,99.99
2019-04-10T04:14:19.946Z,99.99
2019-04-10T04:15:19.876Z,99.99
2019-04-10T04:16:19.534Z,99.99
2019-04-10T04:17:19.983Z,99.99
2019-04-10T04:18:19.612Z,99.99
2019-04-10T04:19:18.805Z,99.99
2019-04-10T04:20:19.346Z,99.99
2019-04-10T04:21:19.785Z,99.99
2019-04-10T04:22:18.891Z,99.99
2019-04-10T04:23:19.606Z,99.99
2019-04-10T04:24:21.015Z,99.99
2019-04-10T04:25:19.432Z,99.99
2019-04-10T04:26:19.052Z,99.99
2019-04-10T04:27:21.580Z,99.99
2019-04-10T04:28:19.308Z,99.99
2019-04-10T04:29:18.849Z,99.99
2019-04-10T04:30:20.431Z,99.99
2019-04-10T04:31:18.584Z,99.99
2019-04-10T04:32:19.587Z,99.99
2019-04-10T04:33:19.011Z,99.99
2019-04-10T04:34:18.777Z,99.99
2019-04-10T04:35:18.509Z,99.99
2019-04-10T04:36:18.494Z,99.99
2019-04-10T04:37:18.987Z,99.99
2019-04-10T04:38:19.767Z,99.99
2019-04-10T04:39:29.683Z,99.99
2019-04-10T04:40:19.572Z,99.99
2019-04-10T04:41:19.381Z,99.99
2019-04-10T04:42:19.121Z,99.99
2019-04-10T04:43:19.101Z,99.99
2019-04-10T04:44:18.350Z,99.99
2019-04-10T04:45:19.413Z,99.99
2019-04-10T04:46:18.605Z,99.99
2019-04-10T04:47:18.324Z,99.99
2019-04-10T04:48:19.563Z,99.99
2019-04-10T04:49:18.258Z,99.99
2019-04-10T04:50:18.015Z,99.99
2019-04-10T04:51:17.984Z,99.99
2019-04-10T04:52:18.685Z,99.99
2019-04-10T04:53:18.461Z,99.99
2019-04-10T04:54:19.142Z,99.99
2019-04-10T04:55:18.163Z,99.99
2019-04-10T04:56:18.202Z,99.99
2019-04-10T04:57:20.375Z,99.99
2019-04-10T04:58:18.151Z,99.99
2019-04-10T04:59:18.660Z,99.99
2019-04-10T05:00:18.056Z,99.99
2019-04-10T05:01:19.356Z,99.99
2019-04-10T05:02:18.023Z,99.99
2019-04-10T05:03:18.784Z,99.99
2019-04-10T05:04:17.986Z,99.99
2019-04-10T05:05:18.854Z,99.99
2019-04-10T05:06:18.439Z,99.99
2019-04-10T05:07:17.941Z,99.99
2019-04-10T05:08:17.667Z,99.99
2019-04-10T05:09:36.842Z,99.99
2019-04-10T05:10:17.682Z,99.99
2019-04-10T05:11:18.281Z,99.99
2019-04-10T05:12:20.046Z,99.99
2019-04-10T05:13:18.232Z,99.99
2019-04-10T05:14:17.800Z,99.99
2019-04-10T05:15:18.842Z,99.99
2019-04-10T05:16:18.904Z,99.99
2019-04-10T05:17:20.301Z,99.99
2019-04-10T05:18:17.731Z,99.99
2019-04-10T05:19:19.717Z,99.99
2019-04-10T05:20:18.912Z,99.99
2019-04-10T05:21:17.679Z,99.99
2019-04-10T05:22:18.479Z,99.99
2019-04-10T05:23:18.517Z,99.99
2019-04-10T05:24:18.233Z,99.99
2019-04-10T05:25:17.358Z,99.99
2019-04-10T05:26:18.584Z,99.99
2019-04-10T05:27:18.459Z,99.99
2019-04-10T05:28:18.151Z,99.99
2019-04-10T05:29:18.171Z,99.99
2019-04-10T05:30:18.745Z,99.99
2019-04-10T05:31:17.577Z,99.99
2019-04-10T05:32:18.326Z,99.99
2019-04-10T05:33:18.588Z,99.99
2019-04-10T05:34:18.131Z,99.99
2019-04-10T05:35:17.635Z,99.99
2019-04-10T05:36:17.760Z,99.99
2019-04-10T05:37:19.112Z,99.99
2019-04-10T05:38:17.375Z,99.99
2019-04-10T05:39:17.360Z,99.99
2019-04-10T05:40:17.680Z,99.99
2019-04-10T05:41:17.899Z,99.99
2019-04-10T05:42:17.301Z,99.99
2019-04-10T05:43:17.643Z,99.99
2019-04-10T05:44:19.971Z,99.99
2019-04-10T05:45:17.274Z,99.99
2019-04-10T05:46:17.233Z,99.99
2019-04-10T05:47:17.225Z,99.99
2019-04-10T05:48:17.760Z,99.99
2019-04-10T05:49:17.391Z,99.99
2019-04-10T05:50:17.462Z,99.99
2019-04-10T05:51:17.467Z,99.99
2019-04-10T05:52:18.091Z,99.99
2019-04-10T05:53:18.346Z,99.99
2019-04-10T05:54:17.424Z,99.99
2019-04-10T05:55:17.167Z,99.99
2019-04-10T05:56:18.986Z,99.99
2019-04-10T05:57:18.195Z,99.99
2019-04-10T05:58:17.618Z,99.99
2019-04-10T05:59:16.830Z,99.99
2019-04-10T06:00:16.985Z,99.99
2019-04-10T06:01:29.845Z,99.99
2019-04-10T06:02:18.137Z,99.99
2019-04-10T06:03:16.935Z,99.99
2019-04-10T06:04:16.980Z,99.99
2019-04-10T06:05:16.897Z,99.99
2019-04-10T06:06:16.978Z,99.99
2019-04-10T06:07:17.065Z,99.99
2019-04-10T06:08:16.840Z,99.99
2019-04-10T06:09:16.826Z,99.99
2019-04-10T06:10:17.854Z,99.99
2019-04-10T06:11:17.567Z,99.99
2019-04-10T06:12:16.772Z,99.99
2019-04-10T06:13:17.494Z,99.99
2019-04-10T06:14:17.762Z,99.99
2019-04-10T06:15:17.217Z,99.99
2019-04-10T06:16:17.736Z,99.99
2019-04-10T06:17:16.685Z,99.99
2019-04-10T06:18:18.711Z,99.99
2019-04-10T06:19:17.785Z,99.99
2019-04-10T06:20:17.987Z,99.99
2019-04-10T06:21:17.209Z,99.99
2019-04-10T06:22:17.031Z,99.99
2019-04-10T06:23:17.420Z,99.99
2019-04-10T06:24:16.613Z,99.99
2019-04-10T06:25:19.647Z,99.99
2019-04-10T06:26:19.822Z,99.99
2019-04-10T06:27:16.668Z,99.99
2019-04-10T06:28:17.344Z,99.99
2019-04-10T06:29:17.334Z,99.99
2019-04-10T06:30:17.788Z,99.99
2019-04-10T06:31:17.077Z,99.99
2019-04-10T06:32:17.030Z,99.99
2019-04-10T06:33:16.419Z,99.99
2019-04-10T06:34:20.497Z,99.99
2019-04-10T06:35:16.521Z,99.99
2019-04-10T06:36:17.463Z,99.99
2019-04-10T06:37:16.350Z,99.99
2019-04-10T06:38:17.185Z,99.99
2019-04-10T06:39:16.505Z,99.99
2019-04-10T06:40:25.778Z,99.99
2019-04-10T06:41:19.720Z,99.99
2019-04-10T06:42:16.668Z,99.99
2019-04-10T06:43:17.096Z,99.99
2019-04-10T06:44:17.417Z,99.99
2019-04-10T06:45:16.222Z,99.99
2019-04-10T06:46:16.955Z,99.99
2019-04-10T06:47:16.294Z,99.99
2019-04-10T06:48:17.103Z,99.99
2019-04-10T06:49:16.890Z,99.99
2019-04-10T06:50:17.218Z,99.99
2019-04-10T06:51:18.652Z,99.99
2019-04-10T06:52:16.750Z,99.99
2019-04-10T06:53:18.763Z,99.99
2019-04-10T06:54:16.817Z,99.99
2019-04-10T06:55:16.049Z,99.99
2019-04-10T06:56:16.656Z,99.99
2019-04-10T06:57:17.023Z,99.99
2019-04-10T06:58:16.116Z,99.99
2019-04-10T06:59:16.584Z,99.99
2019-04-10T07:00:19.686Z,99.99
2019-04-10T07:01:20.908Z,99.99
2019-04-10T07:02:28.196Z,99.99
2019-04-10T07:03:16.927Z,99.99
2019-04-10T07:04:18.063Z,99.99
2019-04-10T07:05:17.341Z,99.99
2019-04-10T07:06:24.018Z,99.99
2019-04-10T07:07:21.490Z,99.99
2019-04-10T07:08:23.716Z,99.99
2019-04-10T07:09:18.157Z,99.99
2019-04-10T07:10:38.231Z,99.99
2019-04-10T07:11:18.497Z,99.99
2019-04-10T07:12:16.816Z,99.99
2019-04-10T07:13:15.937Z,99.99
2019-04-10T07:14:16.814Z,99.99
2019-04-10T07:15:23.569Z,99.99
2019-04-10T07:16:15.984Z,99.99
2019-04-10T07:17:17.759Z,99.99
2019-04-10T07:18:21.900Z,99.99
2019-04-10T07:19:15.719Z,99.99
2019-04-10T07:20:19.789Z,99.99
2019-04-10T07:21:15.386Z,99.99
2019-04-10T07:22:18.223Z,99.99
2019-04-10T07:23:25.767Z,99.99
2019-04-10T07:24:18.708Z,99.99
2019-04-10T07:25:18.018Z,99.99
2019-04-10T07:26:33.347Z,99.99
2019-04-10T07:27:16.431Z,99.99
2019-04-10T07:28:17.287Z,99.99
2019-04-10T07:29:20.590Z,99.99
2019-04-10T07:30:17.319Z,99.99
2019-04-10T07:31:15.495Z,99.99
2019-04-10T07:32:16.875Z,99.99
2019-04-10T07:33:19.876Z,99.99
2019-04-10T07:34:19.928Z,99.99
2019-04-10T07:35:20.182Z,99.99
2019-04-10T07:36:16.274Z,99.99
2019-04-10T07:37:21.559Z,99.99
2019-04-10T07:38:16.355Z,99.99
2019-04-10T07:39:15.554Z,99.99
2019-04-10T07:40:16.349Z,99.99
2019-04-10T07:41:25.686Z,99.99
2019-04-10T07:42:32.701Z,99.99
2019-04-10T07:43:15.718Z,99.99
2019-04-10T07:44:15.278Z,99.99
2019-04-10T07:45:15.010Z,99.99
2019-04-10T07:46:15.579Z,99.99
2019-04-10T07:47:15.735Z,99.99
2019-04-10T07:48:16.087Z,99.99
2019-04-10T07:49:17.653Z,99.99
2019-04-10T07:50:14.934Z,99.99
2019-04-10T07:51:16.918Z,99.99
2019-04-10T07:52:15.163Z,99.99
2019-04-10T07:53:15.246Z,99.99
2019-04-10T07:54:22.634Z,99.99
2019-04-10T07:55:15.312Z,99.99
2019-04-10T07:56:20.910Z,99.99
2019-04-10T07:57:16.179Z,99.99
2019-04-10T07:58:15.617Z,99.99
2019-04-10T07:59:16.349Z,99.99
2019-04-10T08:00:15.993Z,99.99
2019-04-10T08:01:16.093Z,99.99
2019-04-10T08:02:14.993Z,99.99
2019-04-10T08:03:14.980Z,99.99
2019-04-10T08:04:14.735Z,99.99
2019-04-10T08:05:14.948Z,99.99
2019-04-10T08:06:15.549Z,99.99
2019-04-10T08:07:31.533Z,99.99
2019-04-10T08:08:15.130Z,99.99
2019-04-10T08:09:14.984Z,99.99
2019-04-10T08:10:15.817Z,99.99
2019-04-10T08:11:15.697Z,99.99
2019-04-10T08:12:16.225Z,99.99
2019-04-10T08:13:14.829Z,99.99
2019-04-10T08:14:15.157Z,99.99
2019-04-10T08:15:16.765Z,99.99
2019-04-10T08:16:14.880Z,99.99
2019-04-10T08:17:14.765Z,99.99
2019-04-10T08:18:14.788Z,99.99
2019-04-10T08:19:14.868Z,99.99
2019-04-10T08:20:15.725Z,99.99
2019-04-10T08:21:15.861Z,99.99
2019-04-10T08:22:14.747Z,99.99
2019-04-10T08:23:14.745Z,99.99
2019-04-10T08:24:15.888Z,99.99
2019-04-10T08:25:14.640Z,99.99
2019-04-10T08:26:14.625Z,99.99
2019-04-10T08:27:14.611Z,99.99
2019-04-10T08:28:15.572Z,99.99
2019-04-10T08:29:14.582Z,99.99
2019-04-10T08:30:15.409Z,99.99
2019-04-10T08:31:15.182Z,99.99
2019-04-10T08:32:14.541Z,99.99
2019-04-10T08:33:14.548Z,99.99
2019-04-10T08:34:15.081Z,99.58
2019-04-10T08:35:15.614Z,98.16
2019-04-10T08:36:15.392Z,98.16
2019-04-10T08:37:14.840Z,96.17
2019-04-10T08:38:15.512Z,95.98
2019-04-10T08:39:29.906Z,96.83
2019-04-10T08:40:15.578Z,96.55
2019-04-10T08:41:15.097Z,94.84
2019-04-10T08:42:15.081Z,94.27
2019-04-10T08:43:14.373Z,93.8
2019-04-10T08:44:14.114Z,94.56
2019-04-10T08:45:14.345Z,95.22
2019-04-10T08:46:15.313Z,94.51
2019-04-10T08:47:15.367Z,94.56
2019-04-10T08:48:15.463Z,93.8
2019-04-10T08:49:14.417Z,93.13
2019-04-10T08:50:14.313Z,94.84
2019-04-10T08:51:14.914Z,94.74
2019-04-10T08:52:16.597Z,94.84
2019-04-10T08:53:13.986Z,96.17
2019-04-10T08:54:14.495Z,93.89
2019-04-10T08:55:14.203Z,95.03
2019-04-10T08:56:16.201Z,92.76
2019-04-10T08:57:14.615Z,92.38
2019-04-10T08:58:14.479Z,90.48
2019-04-10T08:59:14.224Z,91.05
2019-04-10T09:00:14.631Z,91.52
2019-04-10T09:01:15.336Z,90.86
2019-04-10T09:02:14.109Z,89.76
2019-04-10T09:03:15.034Z,90.05
2019-04-10T09:04:14.919Z,91.09
2019-04-10T09:05:14.255Z,88.62
2019-04-10T09:06:14.048Z,89
2019-04-10T09:07:13.874Z,88.15
2019-04-10T09:08:15.178Z,85.25
2019-04-10T09:09:14.968Z,85.35
2019-04-10T09:10:14.736Z,84.01
2019-04-10T09:11:14.694Z,82.5
2019-04-10T09:12:13.966Z,81.74
2019-04-10T09:13:14.969Z,81.65
2019-04-10T09:14:15.157Z,81.36
2019-04-10T09:15:14.274Z,79.88
2019-04-10T09:16:14.307Z,78.45
2019-04-10T09:17:13.897Z,79.31
2019-04-10T09:18:15.205Z,79.16
2019-04-10T09:19:14.404Z,75.07
2019-04-10T09:20:14.190Z,74.31
2019-04-10T09:21:13.848Z,75.3
2019-04-10T09:22:14.460Z,75.11
2019-04-10T09:23:42.463Z,73.49
2019-04-10T09:24:17.558Z,72.45
2019-04-10T09:25:13.801Z,71.97
2019-04-10T09:26:13.847Z,72.74
2019-04-10T09:27:13.776Z,71.69
2019-04-10T09:28:14.058Z,73.78
2019-04-10T09:29:14.314Z,74.92
2019-04-10T09:30:13.487Z,71.59
2019-04-10T09:31:13.661Z,71.59
2019-04-10T09:32:15.035Z,71.97
2019-04-10T09:33:27.541Z,71.5
2019-04-10T09:34:13.944Z,71.94
2019-04-10T09:35:14.526Z,73.55
2019-04-10T09:36:13.680Z,74.41
2019-04-10T09:37:13.651Z,72.89
2019-04-10T09:38:14.617Z,76.4
2019-04-10T09:39:14.918Z,74.31
2019-04-10T09:40:14.382Z,74.31
2019-04-10T09:41:14.345Z,74.22
2019-04-10T09:42:13.590Z,73.84
2019-04-10T09:43:14.308Z,73.3
2019-04-10T09:44:14.713Z,72.92
2019-04-10T09:45:13.951Z,72.07
2019-04-10T09:46:13.740Z,70.83
2019-04-10T09:47:14.239Z,70.2
2019-04-10T09:48:13.520Z,69.35
2019-04-10T09:49:14.754Z,68.49
2019-04-10T09:51:42.919Z,66.11
2019-04-10T09:52:44.002Z,66.17
2019-04-10T09:53:43.672Z,67.69
2019-04-10T09:54:42.879Z,73.11
2019-04-10T09:55:42.948Z,72.16
2019-04-10T09:56:42.851Z,70.36
2019-04-10T09:57:43.313Z,70.23
2019-04-10T09:58:43.001Z,71.46
2019-04-10T09:59:45.547Z,71.46
2019-04-10T10:00:43.723Z,71.27
2019-04-10T10:01:42.795Z,71.46
2019-04-10T10:02:42.801Z,72.89
2019-04-10T10:03:42.526Z,71.94
2019-04-10T10:04:43.783Z,73.74
2019-04-10T10:05:42.750Z,72.99
2019-04-10T10:06:43.224Z,72.79
2019-04-10T10:07:43.460Z,73.08
2019-04-10T10:08:44.015Z,74.51
2019-04-10T10:09:43.410Z,72.89
2019-04-10T10:10:44.934Z,72.13
2019-04-10T10:11:42.764Z,71.56
2019-04-10T10:12:43.201Z,71.75
2019-04-10T10:13:43.854Z,72.99
2019-04-10T10:14:42.639Z,73.46
2019-04-10T10:15:43.521Z,73.33
2019-04-10T10:16:42.613Z,74.47
2019-04-10T10:17:44.534Z,74.47
2019-04-10T10:18:43.576Z,74.37
2019-04-10T10:19:43.130Z,76.27
2019-04-10T10:20:42.576Z,79.22
2019-04-10T10:21:43.220Z,77.22
2019-04-10T10:22:43.580Z,77.22
2019-04-10T10:23:43.147Z,76.18
2019-04-10T10:24:42.902Z,76.84
2019-04-10T10:25:42.255Z,77.79
2019-04-10T10:26:46.526Z,75.7
2019-04-10T10:27:43.227Z,75.6
2019-04-10T10:28:42.911Z,77.51
2019-04-10T10:29:42.449Z,77.7
2019-04-10T10:30:42.192Z,77.41
2019-04-10T10:31:42.700Z,75.51
2019-04-10T10:32:43.692Z,75.32
2019-04-10T10:33:42.149Z,76.37
2019-04-10T10:34:43.220Z,77.12
2019-04-10T10:35:43.508Z,76.37
2019-04-10T10:36:50.461Z,75.79
2019-04-10T10:37:43.433Z,74.85
2019-04-10T10:38:43.341Z,75.13
2019-04-10T10:39:43.518Z,75.6
2019-04-10T10:40:43.587Z,75.89
2019-04-10T10:41:42.950Z,76.84
2019-04-10T10:42:43.826Z,78.64
2019-04-10T10:43:42.855Z,76.18
2019-04-10T10:44:42.863Z,77.03
2019-04-10T10:45:42.872Z,75.13
2019-04-10T10:46:42.232Z,74.27
2019-04-10T10:47:42.888Z,74.18
2019-04-10T10:48:42.143Z,72.95
2019-04-10T10:49:42.653Z,73.8
2019-04-10T10:50:42.199Z,74.27
2019-04-10T10:51:42.593Z,75.51
2019-04-10T10:52:42.308Z,74.85
2019-04-10T10:53:44.060Z,74.85
2019-04-10T10:54:43.139Z,75.51
2019-04-10T10:55:42.369Z,75.99
2019-04-10T10:56:42.556Z,75.89
2019-04-10T10:57:42.123Z,75.51
2019-04-10T10:58:42.162Z,76.18
2019-04-10T10:59:42.231Z,75.7
2019-04-10T11:00:43.056Z,75.04
2019-04-10T11:01:42.399Z,76.08
2019-04-10T11:02:41.781Z,77.03
2019-04-10T11:03:42.893Z,75.79
2019-04-10T11:04:43.264Z,75.42
2019-04-10T11:05:42.265Z,75.42
2019-04-10T11:08:51.499Z,79.69
2019-04-10T11:09:02.364Z,79.5
2019-04-10T11:10:04.238Z,75.6
2019-04-10T11:11:04.172Z,73.99
2019-04-10T11:12:03.482Z,73.71
2019-04-10T11:13:02.468Z,73.33
2019-04-10T11:14:04.660Z,73.8
2019-04-10T11:15:02.610Z,74.18
2019-04-10T11:16:07.617Z,75.23
2019-04-10T11:17:03.785Z,72.89
2019-04-10T11:18:02.633Z,70.7
2019-04-10T11:19:02.758Z,70.23
2019-04-10T11:20:02.685Z,69.66
2019-04-10T11:21:10.209Z,70.04
2019-04-10T11:22:02.693Z,70.61
2019-04-10T11:23:03.937Z,71.18
2019-04-10T11:24:03.619Z,73.55
2019-04-10T11:25:03.785Z,72.89
2019-04-10T11:26:02.338Z,72.45
2019-04-10T11:27:02.815Z,70.74
2019-04-10T11:28:03.940Z,70.36
2019-04-10T11:29:03.620Z,70.26
2019-04-10T11:30:05.323Z,69.88
2019-04-10T11:31:04.613Z,69.21
2019-04-10T11:32:04.119Z,69.88
2019-04-10T11:33:02.654Z,70.26
2019-04-10T11:34:03.108Z,68.65
2019-04-10T11:35:03.242Z,69.88
2019-04-10T11:36:03.765Z,70.45
2019-04-10T11:37:29.375Z,70.99
2019-04-10T11:39:54.614Z,68.33
2019-04-10T11:40:59.451Z,70.13
2019-04-10T11:43:14.704Z,67.94
2019-04-10T11:44:17.062Z,68.99
2019-04-10T11:45:14.307Z,71.23
2019-04-10T11:46:16.907Z,71.27
2019-04-10T11:47:13.032Z,71.75
2019-04-10T11:48:16.227Z,72.79
2019-04-10T11:49:17.707Z,71.75
2019-04-10T11:50:21.599Z,70.7
2019-04-10T11:56:46.453Z,72.89
2019-04-10T11:57:46.931Z,68.42
2019-04-10T12:02:06.670Z,68.04
2019-04-10T12:02:31.140Z,68.33
2019-04-10T12:03:31.340Z,69.56
2019-04-10T12:04:30.540Z,69.85
2019-04-10T12:05:31.643Z,68.52
2019-04-10T12:06:29.626Z,70.32
2019-04-10T12:12:01.821Z,70.23
2019-04-10T12:13:02.262Z,70.7
2019-04-10T12:14:01.385Z,70.32
2019-04-10T12:15:02.156Z,69.27
2019-04-10T12:16:01.368Z,69.75
2019-04-10T12:17:01.395Z,70.61
2019-04-10T12:18:02.046Z,71.37
2019-04-10T12:19:02.620Z,70.04
2019-04-10T12:20:01.288Z,69.85
2019-04-10T12:21:02.106Z,69.66
2019-04-10T12:22:01.454Z,68.42
2019-04-10T12:23:01.249Z,67.57
2019-04-10T12:24:01.346Z,69.09
2019-04-10T12:25:01.224Z,73.46
2019-04-10T12:26:01.479Z,75.07
2019-04-10T12:27:02.330Z,71.37
2019-04-10T12:28:01.303Z,70.51
2019-04-10T12:29:02.222Z,71.18
2019-04-10T12:30:02.809Z,69.69
2019-04-10T12:31:01.919Z,70.36
2019-04-10T12:32:01.140Z,70.26
2019-04-10T12:33:01.197Z,70.07
2019-04-10T12:34:03.192Z,67.5
2019-04-10T12:35:01.104Z,67.88
2019-04-10T12:36:01.087Z,69.31
2019-04-10T12:37:01.174Z,68.07
2019-04-10T12:38:10.678Z,68.17
2019-04-10T12:39:01.053Z,67.98
2019-04-10T12:40:01.394Z,69.88
2019-04-10T12:41:01.603Z,69.79
2019-04-10T12:42:02.034Z,68.93
2019-04-10T12:43:01.208Z,68.55
2019-04-10T12:44:01.257Z,68.27
2019-04-10T12:45:02.069Z,67
2019-04-10T12:46:00.969Z,67.47
2019-04-10T12:47:01.928Z,69.75
2019-04-10T12:48:01.871Z,70.13
2019-04-10T12:49:03.819Z,70.23
2019-04-10T12:50:00.917Z,69.75
2019-04-10T12:51:01.350Z,69.94
2019-04-10T12:52:00.893Z,68.52
2019-04-10T12:53:01.254Z,67.98
2019-04-10T12:54:01.134Z,67.57
2019-04-10T12:55:02.110Z,67.38
2019-04-10T12:56:01.862Z,67.85
2019-04-10T12:57:02.260Z,69.66
2019-04-10T12:58:15.390Z,68.99
2019-04-10T12:59:01.792Z,68.23
2019-04-10T13:00:06.731Z,67.66
2019-04-10T13:01:00.841Z,66.71
2019-04-10T13:02:00.769Z,68.13
2019-04-10T13:03:01.093Z,67.09
2019-04-10T13:04:00.742Z,65.86
2019-04-10T13:05:00.866Z,66.14
2019-04-10T13:06:01.790Z,67.57
2019-04-10T13:07:01.462Z,66.33
2019-04-10T13:08:21.023Z,65.47
2019-04-10T13:09:15.921Z,65.47
2019-04-10T13:10:12.745Z,66.8
2019-04-10T13:11:12.554Z,67.57
2019-04-10T13:12:11.502Z,66.84
2019-04-10T13:13:11.674Z,66.17